sensor_id;sensor_type;location;lat;lon;timestamp;P1;durP1;ratioP1;P2;durP2;ratioP2
44068;SDS011;29738;51.234;5.484;2022-11-12T00:00:34;21.92;;;9.73;;
44068;SDS011;29738;51.234;5.484;2022-11-12T00:03:01;16.38;;;9.38;;
44068;SDS011;29738;51.234;5.484;2022-11-12T00:05:27;17.40;;;10.00;;
44068;SDS011;29738;51.234;5.484;2022-11-12T00:07:53;16.83;;;9.07;;
44068;SDS011;29738;51.234;5.484;2022-11-12T00:10:18;19.98;;;9.90;;
44068;SDS011;29738;51.234;5.484;2022-11-12T00:12:44;18.98;;;9.55;;
44068;SDS011;29738;51.234;5.484;2022-11-12T00:15:10;19.17;;;9.88;;
44068;SDS011;29738;51.234;5.484;2022-11-12T00:17:36;18.20;;;10.15;;
44068;SDS011;29738;51.234;5.484;2022-11-12T00:20:03;16.95;;;9.50;;
44068;SDS011;29738;51.234;5.484;2022-11-12T00:22:29;16.75;;;9.77;;
44068;SDS011;29738;51.234;5.484;2022-11-12T00:24:55;17.90;;;9.93;;
44068;SDS011;29738;51.234;5.484;2022-11-12T00:27:21;16.35;;;9.23;;
44068;SDS011;29738;51.234;5.484;2022-11-12T00:29:47;14.35;;;8.88;;
44068;SDS011;29738;51.234;5.484;2022-11-12T00:32:12;17.95;;;9.95;;
44068;SDS011;29738;51.234;5.484;2022-11-12T00:34:38;15.68;;;9.30;;
44068;SDS011;29738;51.234;5.484;2022-11-12T00:37:04;23.38;;;10.15;;
44068;SDS011;29738;51.234;5.484;2022-11-12T00:39:30;19.63;;;9.60;;
44068;SDS011;29738;51.234;5.484;2022-11-12T00:41:56;17.80;;;9.70;;
44068;SDS011;29738;51.234;5.484;2022-11-12T00:44:22;19.10;;;10.23;;
44068;SDS011;29738;51.234;5.484;2022-11-12T00:46:47;19.30;;;11.27;;
44068;SDS011;29738;51.234;5.484;2022-11-12T00:49:13;25.23;;;11.07;;
44068;SDS011;29738;51.234;5.484;2022-11-12T00:51:39;17.23;;;9.88;;
44068;SDS011;29738;51.234;5.484;2022-11-12T00:54:06;20.15;;;11.45;;
44068;SDS011;29738;51.234;5.484;2022-11-12T00:56:32;17.63;;;10.27;;
44068;SDS011;29738;51.234;5.484;2022-11-12T00:58:57;15.77;;;9.25;;
44068;SDS011;29738;51.234;5.484;2022-11-12T01:01:24;16.90;;;9.40;;
44068;SDS011;29738;51.234;5.484;2022-11-12T01:03:50;16.88;;;10.32;;
44068;SDS011;29738;51.234;5.484;2022-11-12T01:06:18;16.17;;;10.10;;
44068;SDS011;29738;51.234;5.484;2022-11-12T01:08:45;17.65;;;9.85;;
44068;SDS011;29738;51.234;5.484;2022-11-12T01:11:18;18.83;;;9.48;;
44068;SDS011;29738;51.234;5.484;2022-11-12T01:13:55;15.18;;;9.05;;
44068;SDS011;29738;51.234;5.484;2022-11-12T01:16:27;20.13;;;10.43;;
44068;SDS011;29738;51.234;5.484;2022-11-12T01:18:56;14.25;;;8.77;;
44068;SDS011;29738;51.234;5.484;2022-11-12T01:21:24;15.32;;;9.60;;
44068;SDS011;29738;51.234;5.484;2022-11-12T01:23:50;18.63;;;9.48;;
44068;SDS011;29738;51.234;5.484;2022-11-12T01:26:17;16.52;;;9.52;;
44068;SDS011;29738;51.234;5.484;2022-11-12T01:28:44;18.63;;;9.45;;
44068;SDS011;29738;51.234;5.484;2022-11-12T01:33:47;12.70;;;7.95;;
44068;SDS011;29738;51.234;5.484;2022-11-12T01:36:15;15.50;;;8.88;;
44068;SDS011;29738;51.234;5.484;2022-11-12T01:38:42;19.27;;;9.98;;
44068;SDS011;29738;51.234;5.484;2022-11-12T01:41:11;16.25;;;8.95;;
44068;SDS011;29738;51.234;5.484;2022-11-12T01:43:41;17.85;;;10.20;;
44068;SDS011;29738;51.234;5.484;2022-11-12T01:46:12;16.27;;;8.43;;
44068;SDS011;29738;51.234;5.484;2022-11-12T01:49:04;14.65;;;8.02;;
44068;SDS011;29738;51.234;5.484;2022-11-12T01:51:36;21.05;;;9.82;;
44068;SDS011;29738;51.234;5.484;2022-11-12T01:54:07;17.95;;;10.70;;
44068;SDS011;29738;51.234;5.484;2022-11-12T01:56:34;16.70;;;9.60;;
44068;SDS011;29738;51.234;5.484;2022-11-12T01:59:02;19.25;;;9.32;;
44068;SDS011;29738;51.234;5.484;2022-11-12T02:01:36;28.63;;;13.57;;
44068;SDS011;29738;51.234;5.484;2022-11-12T02:04:02;48.13;;;18.08;;
44068;SDS011;29738;51.234;5.484;2022-11-12T02:06:28;32.38;;;14.63;;
44068;SDS011;29738;51.234;5.484;2022-11-12T02:08:55;36.00;;;14.32;;
44068;SDS011;29738;51.234;5.484;2022-11-12T02:11:21;28.70;;;13.38;;
44068;SDS011;29738;51.234;5.484;2022-11-12T02:13:47;27.90;;;13.38;;
44068;SDS011;29738;51.234;5.484;2022-11-12T02:16:22;29.00;;;13.00;;
44068;SDS011;29738;51.234;5.484;2022-11-12T02:19:06;34.08;;;13.75;;
44068;SDS011;29738;51.234;5.484;2022-11-12T02:21:34;33.97;;;13.93;;
44068;SDS011;29738;51.234;5.484;2022-11-12T02:24:02;34.28;;;13.88;;
44068;SDS011;29738;51.234;5.484;2022-11-12T02:26:52;28.65;;;12.65;;
44068;SDS011;29738;51.234;5.484;2022-11-12T02:29:19;22.80;;;11.25;;
44068;SDS011;29738;51.234;5.484;2022-11-12T02:31:45;18.85;;;10.50;;
44068;SDS011;29738;51.234;5.484;2022-11-12T02:34:11;30.77;;;13.00;;
44068;SDS011;29738;51.234;5.484;2022-11-12T02:36:36;26.15;;;12.57;;
44068;SDS011;29738;51.234;5.484;2022-11-12T02:39:02;24.27;;;10.80;;
44068;SDS011;29738;51.234;5.484;2022-11-12T02:41:28;19.70;;;11.23;;
44068;SDS011;29738;51.234;5.484;2022-11-12T02:43:54;25.38;;;11.50;;
44068;SDS011;29738;51.234;5.484;2022-11-12T02:46:20;23.70;;;11.35;;
44068;SDS011;29738;51.234;5.484;2022-11-12T02:48:46;29.52;;;11.98;;
44068;SDS011;29738;51.234;5.484;2022-11-12T02:51:11;20.48;;;12.15;;
44068;SDS011;29738;51.234;5.484;2022-11-12T02:53:37;20.15;;;10.70;;
44068;SDS011;29738;51.234;5.484;2022-11-12T02:56:03;21.52;;;11.00;;
44068;SDS011;29738;51.234;5.484;2022-11-12T02:58:29;22.98;;;11.13;;
44068;SDS011;29738;51.234;5.484;2022-11-12T03:00:55;19.55;;;10.82;;
44068;SDS011;29738;51.234;5.484;2022-11-12T03:03:22;23.15;;;11.23;;
44068;SDS011;29738;51.234;5.484;2022-11-12T03:05:55;26.75;;;12.07;;
44068;SDS011;29738;51.234;5.484;2022-11-12T03:08:21;28.83;;;11.95;;
44068;SDS011;29738;51.234;5.484;2022-11-12T03:10:47;21.42;;;11.80;;
44068;SDS011;29738;51.234;5.484;2022-11-12T03:13:13;24.65;;;10.77;;
44068;SDS011;29738;51.234;5.484;2022-11-12T03:15:39;20.35;;;10.65;;
44068;SDS011;29738;51.234;5.484;2022-11-12T03:18:05;21.73;;;11.50;;
44068;SDS011;29738;51.234;5.484;2022-11-12T03:20:31;19.98;;;10.77;;
44068;SDS011;29738;51.234;5.484;2022-11-12T03:23:00;23.50;;;11.38;;
44068;SDS011;29738;51.234;5.484;2022-11-12T03:25:27;20.40;;;10.57;;
44068;SDS011;29738;51.234;5.484;2022-11-12T03:28:00;23.63;;;11.90;;
44068;SDS011;29738;51.234;5.484;2022-11-12T03:30:29;22.08;;;11.63;;
44068;SDS011;29738;51.234;5.484;2022-11-12T03:32:56;23.05;;;11.05;;
44068;SDS011;29738;51.234;5.484;2022-11-12T03:35:22;20.98;;;10.73;;
44068;SDS011;29738;51.234;5.484;2022-11-12T03:37:48;23.58;;;12.43;;
44068;SDS011;29738;51.234;5.484;2022-11-12T03:40:14;26.35;;;12.90;;
44068;SDS011;29738;51.234;5.484;2022-11-12T03:42:48;22.13;;;11.20;;
44068;SDS011;29738;51.234;5.484;2022-11-12T03:45:15;21.45;;;10.98;;
44068;SDS011;29738;51.234;5.484;2022-11-12T03:47:42;20.83;;;11.20;;
44068;SDS011;29738;51.234;5.484;2022-11-12T03:50:15;22.88;;;8.95;;
44068;SDS011;29738;51.234;5.484;2022-11-12T03:52:45;19.50;;;10.32;;
44068;SDS011;29738;51.234;5.484;2022-11-12T03:55:13;22.83;;;11.48;;
44068;SDS011;29738;51.234;5.484;2022-11-12T03:57:39;18.55;;;10.88;;
44068;SDS011;29738;51.234;5.484;2022-11-12T04:00:06;31.90;;;12.73;;
44068;SDS011;29738;51.234;5.484;2022-11-12T04:02:32;28.13;;;12.13;;
44068;SDS011;29738;51.234;5.484;2022-11-12T04:04:58;22.70;;;12.93;;
44068;SDS011;29738;51.234;5.484;2022-11-12T04:07:43;21.20;;;11.15;;
44068;SDS011;29738;51.234;5.484;2022-11-12T04:10:27;29.27;;;13.07;;
44068;SDS011;29738;51.234;5.484;2022-11-12T04:12:53;24.58;;;12.65;;
44068;SDS011;29738;51.234;5.484;2022-11-12T04:15:38;23.30;;;11.18;;
44068;SDS011;29738;51.234;5.484;2022-11-12T04:18:04;23.20;;;11.20;;
44068;SDS011;29738;51.234;5.484;2022-11-12T04:20:48;25.92;;;11.73;;
44068;SDS011;29738;51.234;5.484;2022-11-12T04:23:32;19.08;;;10.10;;
44068;SDS011;29738;51.234;5.484;2022-11-12T04:25:58;24.42;;;11.25;;
44068;SDS011;29738;51.234;5.484;2022-11-12T04:28:42;22.60;;;10.60;;
44068;SDS011;29738;51.234;5.484;2022-11-12T04:31:28;20.85;;;10.27;;
44068;SDS011;29738;51.234;5.484;2022-11-12T04:33:53;29.42;;;11.52;;
44068;SDS011;29738;51.234;5.484;2022-11-12T04:36:19;21.88;;;11.02;;
44068;SDS011;29738;51.234;5.484;2022-11-12T04:38:45;20.90;;;10.98;;
44068;SDS011;29738;51.234;5.484;2022-11-12T04:41:11;19.92;;;10.15;;
44068;SDS011;29738;51.234;5.484;2022-11-12T04:43:55;17.90;;;9.90;;
44068;SDS011;29738;51.234;5.484;2022-11-12T04:46:39;22.58;;;11.98;;
44068;SDS011;29738;51.234;5.484;2022-11-12T04:49:05;19.55;;;11.75;;
44068;SDS011;29738;51.234;5.484;2022-11-12T04:51:30;19.92;;;10.65;;
44068;SDS011;29738;51.234;5.484;2022-11-12T04:54:15;21.85;;;10.40;;
44068;SDS011;29738;51.234;5.484;2022-11-12T04:56:40;21.65;;;11.52;;
44068;SDS011;29738;51.234;5.484;2022-11-12T04:59:06;24.80;;;11.70;;
44068;SDS011;29738;51.234;5.484;2022-11-12T05:01:32;20.67;;;11.95;;
44068;SDS011;29738;51.234;5.484;2022-11-12T05:03:58;23.83;;;11.15;;
44068;SDS011;29738;51.234;5.484;2022-11-12T05:06:23;22.27;;;11.43;;
44068;SDS011;29738;51.234;5.484;2022-11-12T05:09:08;21.65;;;11.60;;
44068;SDS011;29738;51.234;5.484;2022-11-12T05:11:33;22.80;;;11.30;;
44068;SDS011;29738;51.234;5.484;2022-11-12T05:13:59;25.65;;;12.15;;
44068;SDS011;29738;51.234;5.484;2022-11-12T05:16:25;19.85;;;10.45;;
44068;SDS011;29738;51.234;5.484;2022-11-12T05:18:50;20.67;;;10.98;;
44068;SDS011;29738;51.234;5.484;2022-11-12T05:21:16;21.23;;;11.23;;
44068;SDS011;29738;51.234;5.484;2022-11-12T05:24:00;22.40;;;11.02;;
44068;SDS011;29738;51.234;5.484;2022-11-12T05:26:26;22.48;;;10.45;;
44068;SDS011;29738;51.234;5.484;2022-11-12T05:28:53;19.83;;;10.65;;
44068;SDS011;29738;51.234;5.484;2022-11-12T05:31:18;27.98;;;13.45;;
44068;SDS011;29738;51.234;5.484;2022-11-12T05:33:44;24.77;;;11.65;;
44068;SDS011;29738;51.234;5.484;2022-11-12T05:36:10;22.40;;;11.75;;
44068;SDS011;29738;51.234;5.484;2022-11-12T05:38:36;20.38;;;10.63;;
44068;SDS011;29738;51.234;5.484;2022-11-12T05:41:03;24.90;;;11.45;;
44068;SDS011;29738;51.234;5.484;2022-11-12T05:43:28;24.15;;;12.15;;
44068;SDS011;29738;51.234;5.484;2022-11-12T05:45:54;23.35;;;11.40;;
44068;SDS011;29738;51.234;5.484;2022-11-12T05:48:20;20.85;;;11.05;;
44068;SDS011;29738;51.234;5.484;2022-11-12T05:50:52;24.75;;;12.55;;
44068;SDS011;29738;51.234;5.484;2022-11-12T05:55:44;25.85;;;10.93;;
44068;SDS011;29738;51.234;5.484;2022-11-12T05:58:10;26.73;;;11.82;;
44068;SDS011;29738;51.234;5.484;2022-11-12T06:00:35;24.00;;;11.82;;
44068;SDS011;29738;51.234;5.484;2022-11-12T06:03:04;22.55;;;11.93;;
44068;SDS011;29738;51.234;5.484;2022-11-12T06:05:34;21.50;;;12.07;;
44068;SDS011;29738;51.234;5.484;2022-11-12T06:08:00;31.73;;;13.40;;
44068;SDS011;29738;51.234;5.484;2022-11-12T06:10:28;24.40;;;13.00;;
44068;SDS011;29738;51.234;5.484;2022-11-12T06:12:54;29.27;;;13.55;;
44068;SDS011;29738;51.234;5.484;2022-11-12T06:15:20;19.27;;;11.63;;
44068;SDS011;29738;51.234;5.484;2022-11-12T06:17:46;29.38;;;13.15;;
44068;SDS011;29738;51.234;5.484;2022-11-12T06:20:12;93.00;;;35.78;;
44068;SDS011;29738;51.234;5.484;2022-11-12T06:22:37;89.72;;;36.08;;
44068;SDS011;29738;51.234;5.484;2022-11-12T06:25:04;25.17;;;13.32;;
44068;SDS011;29738;51.234;5.484;2022-11-12T06:27:30;26.73;;;12.50;;
44068;SDS011;29738;51.234;5.484;2022-11-12T06:29:56;26.17;;;13.27;;
44068;SDS011;29738;51.234;5.484;2022-11-12T06:32:22;27.77;;;12.77;;
44068;SDS011;29738;51.234;5.484;2022-11-12T06:34:48;23.63;;;11.20;;
44068;SDS011;29738;51.234;5.484;2022-11-12T06:37:16;20.10;;;11.32;;
44068;SDS011;29738;51.234;5.484;2022-11-12T06:39:42;21.67;;;12.00;;
44068;SDS011;29738;51.234;5.484;2022-11-12T06:42:08;24.20;;;10.88;;
44068;SDS011;29738;51.234;5.484;2022-11-12T06:44:34;23.60;;;11.73;;
44068;SDS011;29738;51.234;5.484;2022-11-12T06:47:00;25.83;;;13.10;;
44068;SDS011;29738;51.234;5.484;2022-11-12T06:49:26;24.00;;;12.05;;
44068;SDS011;29738;51.234;5.484;2022-11-12T06:51:52;25.25;;;12.52;;
44068;SDS011;29738;51.234;5.484;2022-11-12T06:54:17;28.88;;;12.32;;
44068;SDS011;29738;51.234;5.484;2022-11-12T06:56:43;26.42;;;13.10;;
44068;SDS011;29738;51.234;5.484;2022-11-12T06:59:09;31.00;;;15.20;;
44068;SDS011;29738;51.234;5.484;2022-11-12T07:01:35;36.38;;;16.67;;
44068;SDS011;29738;51.234;5.484;2022-11-12T07:04:01;32.88;;;15.23;;
44068;SDS011;29738;51.234;5.484;2022-11-12T07:06:27;31.80;;;15.45;;
44068;SDS011;29738;51.234;5.484;2022-11-12T07:08:53;28.70;;;16.00;;
44068;SDS011;29738;51.234;5.484;2022-11-12T07:11:18;37.38;;;15.85;;
44068;SDS011;29738;51.234;5.484;2022-11-12T07:13:44;30.35;;;14.10;;
44068;SDS011;29738;51.234;5.484;2022-11-12T07:16:12;26.55;;;12.95;;
44068;SDS011;29738;51.234;5.484;2022-11-12T07:18:42;31.95;;;14.43;;
44068;SDS011;29738;51.234;5.484;2022-11-12T07:21:13;31.52;;;14.93;;
44068;SDS011;29738;51.234;5.484;2022-11-12T07:26:11;25.05;;;10.88;;
44068;SDS011;29738;51.234;5.484;2022-11-12T07:28:42;32.80;;;14.13;;
44068;SDS011;29738;51.234;5.484;2022-11-12T07:31:09;25.17;;;12.52;;
44068;SDS011;29738;51.234;5.484;2022-11-12T07:33:36;29.33;;;13.80;;
44068;SDS011;29738;51.234;5.484;2022-11-12T07:36:06;39.78;;;15.13;;
44068;SDS011;29738;51.234;5.484;2022-11-12T07:38:34;35.92;;;16.35;;
44068;SDS011;29738;51.234;5.484;2022-11-12T07:41:05;33.88;;;15.68;;
44068;SDS011;29738;51.234;5.484;2022-11-12T07:43:33;28.00;;;15.27;;
44068;SDS011;29738;51.234;5.484;2022-11-12T07:46:01;29.88;;;16.88;;
44068;SDS011;29738;51.234;5.484;2022-11-12T07:48:29;41.92;;;17.83;;
44068;SDS011;29738;51.234;5.484;2022-11-12T07:51:00;34.33;;;16.98;;
44068;SDS011;29738;51.234;5.484;2022-11-12T07:53:26;39.00;;;16.35;;
44068;SDS011;29738;51.234;5.484;2022-11-12T07:55:55;39.70;;;17.98;;
44068;SDS011;29738;51.234;5.484;2022-11-12T07:58:22;46.42;;;17.13;;
44068;SDS011;29738;51.234;5.484;2022-11-12T08:00:49;33.13;;;16.20;;
44068;SDS011;29738;51.234;5.484;2022-11-12T08:03:15;37.75;;;18.58;;
44068;SDS011;29738;51.234;5.484;2022-11-12T08:05:41;36.95;;;18.27;;
44068;SDS011;29738;51.234;5.484;2022-11-12T08:08:06;33.17;;;16.40;;
44068;SDS011;29738;51.234;5.484;2022-11-12T08:10:32;28.10;;;14.43;;
44068;SDS011;29738;51.234;5.484;2022-11-12T08:12:58;38.60;;;15.90;;
44068;SDS011;29738;51.234;5.484;2022-11-12T08:15:24;39.05;;;17.45;;
44068;SDS011;29738;51.234;5.484;2022-11-12T08:17:50;33.05;;;15.65;;
44068;SDS011;29738;51.234;5.484;2022-11-12T08:20:16;30.65;;;15.82;;
44068;SDS011;29738;51.234;5.484;2022-11-12T08:22:42;38.88;;;16.95;;
44068;SDS011;29738;51.234;5.484;2022-11-12T08:25:07;32.22;;;17.10;;
44068;SDS011;29738;51.234;5.484;2022-11-12T08:27:33;43.78;;;18.77;;
44068;SDS011;29738;51.234;5.484;2022-11-12T08:30:01;31.25;;;15.65;;
44068;SDS011;29738;51.234;5.484;2022-11-12T08:32:27;34.28;;;15.70;;
44068;SDS011;29738;51.234;5.484;2022-11-12T08:34:53;35.38;;;16.70;;
44068;SDS011;29738;51.234;5.484;2022-11-12T08:37:19;34.35;;;17.10;;
44068;SDS011;29738;51.234;5.484;2022-11-12T08:39:45;31.27;;;17.10;;
44068;SDS011;29738;51.234;5.484;2022-11-12T08:42:10;32.97;;;16.00;;
44068;SDS011;29738;51.234;5.484;2022-11-12T08:44:36;34.00;;;16.08;;
44068;SDS011;29738;51.234;5.484;2022-11-12T08:47:02;60.10;;;24.50;;
44068;SDS011;29738;51.234;5.484;2022-11-12T08:49:28;38.85;;;20.70;;
44068;SDS011;29738;51.234;5.484;2022-11-12T08:51:54;35.20;;;17.25;;
44068;SDS011;29738;51.234;5.484;2022-11-12T08:54:20;37.97;;;17.60;;
44068;SDS011;29738;51.234;5.484;2022-11-12T08:56:46;37.17;;;16.98;;
44068;SDS011;29738;51.234;5.484;2022-11-12T08:59:11;35.78;;;16.13;;
44068;SDS011;29738;51.234;5.484;2022-11-12T09:01:37;32.08;;;17.00;;
44068;SDS011;29738;51.234;5.484;2022-11-12T09:04:03;37.95;;;18.35;;
44068;SDS011;29738;51.234;5.484;2022-11-12T09:06:29;37.08;;;17.73;;
44068;SDS011;29738;51.234;5.484;2022-11-12T09:08:54;37.97;;;17.83;;
44068;SDS011;29738;51.234;5.484;2022-11-12T09:11:20;34.75;;;15.60;;
44068;SDS011;29738;51.234;5.484;2022-11-12T09:13:46;37.25;;;17.40;;
44068;SDS011;29738;51.234;5.484;2022-11-12T09:16:11;41.03;;;19.25;;
44068;SDS011;29738;51.234;5.484;2022-11-12T09:18:37;54.53;;;20.23;;
44068;SDS011;29738;51.234;5.484;2022-11-12T09:21:06;41.92;;;18.13;;
44068;SDS011;29738;51.234;5.484;2022-11-12T09:23:34;33.20;;;16.73;;
44068;SDS011;29738;51.234;5.484;2022-11-12T09:26:00;44.22;;;18.40;;
44068;SDS011;29738;51.234;5.484;2022-11-12T09:28:27;32.33;;;17.42;;
44068;SDS011;29738;51.234;5.484;2022-11-12T09:30:53;36.05;;;17.75;;
44068;SDS011;29738;51.234;5.484;2022-11-12T09:33:22;38.40;;;16.65;;
44068;SDS011;29738;51.234;5.484;2022-11-12T09:35:50;32.95;;;14.93;;
44068;SDS011;29738;51.234;5.484;2022-11-12T09:38:17;33.00;;;17.42;;
44068;SDS011;29738;51.234;5.484;2022-11-12T09:46:54;26.23;;;14.63;;
44068;SDS011;29738;51.234;5.484;2022-11-12T09:49:35;28.73;;;12.73;;
44068;SDS011;29738;51.234;5.484;2022-11-12T09:52:22;31.55;;;14.88;;
44068;SDS011;29738;51.234;5.484;2022-11-12T09:54:56;28.92;;;14.85;;
44068;SDS011;29738;51.234;5.484;2022-11-12T09:57:33;26.70;;;14.07;;
44068;SDS011;29738;51.234;5.484;2022-11-12T09:59:59;30.52;;;15.05;;
44068;SDS011;29738;51.234;5.484;2022-11-12T10:12:58;27.77;;;13.48;;
44068;SDS011;29738;51.234;5.484;2022-11-12T10:23:41;24.70;;;12.65;;
44068;SDS011;29738;51.234;5.484;2022-11-12T10:26:11;23.00;;;13.55;;
44068;SDS011;29738;51.234;5.484;2022-11-12T10:28:46;21.98;;;13.13;;
44068;SDS011;29738;51.234;5.484;2022-11-12T10:31:26;22.58;;;12.75;;
44068;SDS011;29738;51.234;5.484;2022-11-12T10:33:54;23.17;;;12.00;;
44068;SDS011;29738;51.234;5.484;2022-11-12T10:36:53;25.77;;;12.70;;
44068;SDS011;29738;51.234;5.484;2022-11-12T10:39:32;19.17;;;12.00;;
44068;SDS011;29738;51.234;5.484;2022-11-12T10:42:21;24.52;;;12.10;;
44068;SDS011;29738;51.234;5.484;2022-11-12T10:44:47;22.80;;;11.55;;
44068;SDS011;29738;51.234;5.484;2022-11-12T10:50:19;23.95;;;11.98;;
44068;SDS011;29738;51.234;5.484;2022-11-12T10:52:58;19.20;;;12.13;;
44068;SDS011;29738;51.234;5.484;2022-11-12T10:55:27;21.35;;;11.98;;
44068;SDS011;29738;51.234;5.484;2022-11-12T10:58:05;20.45;;;12.30;;
44068;SDS011;29738;51.234;5.484;2022-11-12T11:03:22;20.73;;;12.57;;
44068;SDS011;29738;51.234;5.484;2022-11-12T11:08:40;20.17;;;12.00;;
44068;SDS011;29738;51.234;5.484;2022-11-12T11:11:18;18.15;;;11.00;;
44068;SDS011;29738;51.234;5.484;2022-11-12T11:13:47;20.08;;;10.80;;
44068;SDS011;29738;51.234;5.484;2022-11-12T11:16:24;18.10;;;11.65;;
44068;SDS011;29738;51.234;5.484;2022-11-12T11:19:12;17.02;;;10.90;;
44068;SDS011;29738;51.234;5.484;2022-11-12T11:24:20;20.00;;;11.00;;
44068;SDS011;29738;51.234;5.484;2022-11-12T11:27:03;16.45;;;10.27;;
44068;SDS011;29738;51.234;5.484;2022-11-12T11:32:20;19.30;;;11.18;;
44068;SDS011;29738;51.234;5.484;2022-11-12T11:40:47;17.08;;;11.07;;
44068;SDS011;29738;51.234;5.484;2022-11-12T11:43:42;16.95;;;10.07;;
44068;SDS011;29738;51.234;5.484;2022-11-12T11:49:03;20.27;;;10.35;;
44068;SDS011;29738;51.234;5.484;2022-11-12T11:51:54;15.40;;;9.77;;
44068;SDS011;29738;51.234;5.484;2022-11-12T11:57:22;18.10;;;10.20;;
44068;SDS011;29738;51.234;5.484;2022-11-12T12:13:18;16.55;;;10.63;;
44068;SDS011;29738;51.234;5.484;2022-11-12T12:16:25;19.33;;;9.60;;
44068;SDS011;29738;51.234;5.484;2022-11-12T12:22:00;21.92;;;10.85;;
44068;SDS011;29738;51.234;5.484;2022-11-12T12:24:40;16.75;;;10.88;;
44068;SDS011;29738;51.234;5.484;2022-11-12T12:27:20;19.33;;;10.90;;
44068;SDS011;29738;51.234;5.484;2022-11-12T12:29:51;20.15;;;11.50;;
44068;SDS011;29738;51.234;5.484;2022-11-12T12:32:26;19.58;;;11.35;;
44068;SDS011;29738;51.234;5.484;2022-11-12T12:35:55;18.03;;;11.07;;
44068;SDS011;29738;51.234;5.484;2022-11-12T12:38:02;19.17;;;10.75;;
44068;SDS011;29738;51.234;5.484;2022-11-12T12:40:50;15.88;;;11.25;;
44068;SDS011;29738;51.234;5.484;2022-11-12T12:43:27;17.35;;;10.38;;
44068;SDS011;29738;51.234;5.484;2022-11-12T12:45:59;18.42;;;11.00;;
44068;SDS011;29738;51.234;5.484;2022-11-12T12:48:30;20.52;;;11.93;;
44068;SDS011;29738;51.234;5.484;2022-11-12T12:50:59;18.15;;;10.68;;
44068;SDS011;29738;51.234;5.484;2022-11-12T12:55:51;17.63;;;10.65;;
44068;SDS011;29738;51.234;5.484;2022-11-12T12:58:32;17.10;;;10.52;;
44068;SDS011;29738;51.234;5.484;2022-11-12T13:01:07;15.88;;;10.88;;
44068;SDS011;29738;51.234;5.484;2022-11-12T13:03:57;18.38;;;11.30;;
44068;SDS011;29738;51.234;5.484;2022-11-12T13:17:03;17.15;;;10.05;;
44068;SDS011;29738;51.234;5.484;2022-11-12T13:19:43;14.48;;;9.70;;
44068;SDS011;29738;51.234;5.484;2022-11-12T13:25:04;14.40;;;9.05;;
44068;SDS011;29738;51.234;5.484;2022-11-12T13:37:50;12.85;;;8.02;;
44068;SDS011;29738;51.234;5.484;2022-11-12T13:48:28;14.03;;;9.03;;
44068;SDS011;29738;51.234;5.484;2022-11-12T13:53:49;14.13;;;8.57;;
44068;SDS011;29738;51.234;5.484;2022-11-12T13:56:32;15.10;;;8.52;;
44068;SDS011;29738;51.234;5.484;2022-11-12T13:59:41;13.18;;;8.32;;
44068;SDS011;29738;51.234;5.484;2022-11-12T14:01:49;11.57;;;7.63;;
44068;SDS011;29738;51.234;5.484;2022-11-12T14:04:17;12.20;;;7.68;;
44068;SDS011;29738;51.234;5.484;2022-11-12T14:06:48;14.32;;;7.75;;
44068;SDS011;29738;51.234;5.484;2022-11-12T14:20:28;13.43;;;7.20;;
44068;SDS011;29738;51.234;5.484;2022-11-12T14:23:08;14.20;;;7.68;;
44068;SDS011;29738;51.234;5.484;2022-11-12T14:28:23;11.77;;;7.07;;
44068;SDS011;29738;51.234;5.484;2022-11-12T14:30:53;13.45;;;7.00;;
44068;SDS011;29738;51.234;5.484;2022-11-12T14:33:21;12.57;;;6.97;;
44068;SDS011;29738;51.234;5.484;2022-11-12T14:35:50;12.30;;;6.90;;
44068;SDS011;29738;51.234;5.484;2022-11-12T14:38:21;11.43;;;7.47;;
44068;SDS011;29738;51.234;5.484;2022-11-12T14:43:25;11.82;;;7.03;;
44068;SDS011;29738;51.234;5.484;2022-11-12T14:45:57;12.98;;;6.63;;
44068;SDS011;29738;51.234;5.484;2022-11-12T14:48:25;12.98;;;6.78;;
44068;SDS011;29738;51.234;5.484;2022-11-12T14:50:54;12.95;;;7.47;;
44068;SDS011;29738;51.234;5.484;2022-11-12T14:53:43;10.88;;;6.97;;
44068;SDS011;29738;51.234;5.484;2022-11-12T14:58:59;12.43;;;6.93;;
44068;SDS011;29738;51.234;5.484;2022-11-12T15:02:08;12.88;;;7.38;;
44068;SDS011;29738;51.234;5.484;2022-11-12T15:04:42;14.93;;;7.75;;
44068;SDS011;29738;51.234;5.484;2022-11-12T15:07:28;11.68;;;7.18;;
44068;SDS011;29738;51.234;5.484;2022-11-12T15:09:56;15.77;;;7.35;;
44068;SDS011;29738;51.234;5.484;2022-11-12T15:12:23;12.15;;;6.55;;
44068;SDS011;29738;51.234;5.484;2022-11-12T15:14:51;12.18;;;6.68;;
44068;SDS011;29738;51.234;5.484;2022-11-12T15:17:31;11.70;;;6.03;;
44068;SDS011;29738;51.234;5.484;2022-11-12T15:20:03;11.32;;;6.22;;
44068;SDS011;29738;51.234;5.484;2022-11-12T15:22:30;11.43;;;6.05;;
44068;SDS011;29738;51.234;5.484;2022-11-12T15:25:43;13.07;;;7.00;;
44068;SDS011;29738;51.234;5.484;2022-11-12T15:27:47;12.95;;;7.18;;
44068;SDS011;29738;51.234;5.484;2022-11-12T15:30:21;13.25;;;6.60;;
44068;SDS011;29738;51.234;5.484;2022-11-12T15:35:54;11.45;;;6.35;;
44068;SDS011;29738;51.234;5.484;2022-11-12T15:38:26;10.88;;;6.03;;
44068;SDS011;29738;51.234;5.484;2022-11-12T15:41:00;11.95;;;6.80;;
44068;SDS011;29738;51.234;5.484;2022-11-12T15:43:31;12.90;;;6.55;;
44068;SDS011;29738;51.234;5.484;2022-11-12T15:45:59;10.88;;;6.55;;
44068;SDS011;29738;51.234;5.484;2022-11-12T15:48:26;10.93;;;5.72;;
44068;SDS011;29738;51.234;5.484;2022-11-12T15:50:52;12.57;;;6.60;;
44068;SDS011;29738;51.234;5.484;2022-11-12T15:53:18;11.00;;;6.05;;
44068;SDS011;29738;51.234;5.484;2022-11-12T15:55:44;13.80;;;6.72;;
44068;SDS011;29738;51.234;5.484;2022-11-12T15:58:28;10.63;;;5.93;;
44068;SDS011;29738;51.234;5.484;2022-11-12T16:00:56;13.95;;;6.60;;
44068;SDS011;29738;51.234;5.484;2022-11-12T16:03:22;11.13;;;6.35;;
44068;SDS011;29738;51.234;5.484;2022-11-12T16:05:48;11.63;;;6.55;;
44068;SDS011;29738;51.234;5.484;2022-11-12T16:08:14;12.80;;;6.68;;
44068;SDS011;29738;51.234;5.484;2022-11-12T16:10:40;12.75;;;7.10;;
44068;SDS011;29738;51.234;5.484;2022-11-12T16:13:13;12.70;;;7.03;;
44068;SDS011;29738;51.234;5.484;2022-11-12T16:15:42;12.13;;;5.90;;
44068;SDS011;29738;51.234;5.484;2022-11-12T16:18:11;13.63;;;6.47;;
44068;SDS011;29738;51.234;5.484;2022-11-12T16:20:36;13.90;;;6.47;;
44068;SDS011;29738;51.234;5.484;2022-11-12T16:23:03;16.95;;;7.45;;
44068;SDS011;29738;51.234;5.484;2022-11-12T16:25:29;13.35;;;7.03;;
44068;SDS011;29738;51.234;5.484;2022-11-12T16:27:57;18.75;;;8.80;;
44068;SDS011;29738;51.234;5.484;2022-11-12T16:30:24;22.83;;;10.15;;
44068;SDS011;29738;51.234;5.484;2022-11-12T16:32:52;19.58;;;7.93;;
44068;SDS011;29738;51.234;5.484;2022-11-12T16:35:18;28.67;;;12.63;;
44068;SDS011;29738;51.234;5.484;2022-11-12T16:37:44;27.30;;;12.88;;
44068;SDS011;29738;51.234;5.484;2022-11-12T16:40:12;16.70;;;8.85;;
44068;SDS011;29738;51.234;5.484;2022-11-12T16:42:42;16.83;;;8.20;;
44068;SDS011;29738;51.234;5.484;2022-11-12T16:45:21;13.02;;;6.75;;
44068;SDS011;29738;51.234;5.484;2022-11-12T16:47:52;12.27;;;5.70;;
44068;SDS011;29738;51.234;5.484;2022-11-12T16:50:23;14.35;;;5.65;;
44068;SDS011;29738;51.234;5.484;2022-11-12T16:52:51;11.55;;;6.90;;
44068;SDS011;29738;51.234;5.484;2022-11-12T16:55:18;13.00;;;6.82;;